Dunlow, WV (25511)

12:35 AM EDT del 29 Luglio 2014 (GMT -0400)
Near Salt Rock Elementary School (KWVSALTR2) Alt. 627 ft | 38.32 °N, 82.23 °W | Change Station

Current weather conditions updated 2 minutes ago

Overcast
Coperto
60.8 °F
Sembra 60.8 °F
N
0.0
Vento Variabile Vento da SE
Gusts 0.0 mph

Oggi non si prevedono cambiamenti consistenti della temperatura rispetto a ieri.

Oggi
Massima -- | Minima -- °F
--% Possibilità di precip.
Ieri
Massima -- | Minima -- °F
Precip. -- in
6:29 AM 8:41 PM
Luna crescente, 4% visible
Pressione 29.99 in
Visibilità 10.0 miglia
Nuvole Nubi sparse 4700 ft
Nubi sparse 6000 ft
Coperto 7500 ft
Punto di rugiada 59 °F
Umidità 95%
Piovosità 0.00 in
Spessore del manto nevoso Non disponibile.
Raggi UV 0 fuori da 12
Polline 3.90 fuori da 12
Qualità dell'aria Non disponibile.
Flu Activity Non disponibile.
METAR KSJS 290415Z AUTO 27004KT 10SM SCT047 SCT060 OVC075 17/16 A2999 RMK AO2 T01740158

More Conditions Fewer Conditions

Pressione 29.99 in
Visibilità 10.0 miglia
Nuvole Nubi sparse 4700 ft
Nubi sparse 6000 ft
Coperto 7500 ft
Punto di rugiada 59 °F
Umidità 95%
Piovosità 0.00 in
Spessore del manto nevoso Non disponibile.
Raggi UV 0 fuori da 12
Polline 3.90 fuori da 12
Qualità dell'aria Non disponibile.
Flu Activity Non disponibile.
METAR KSJS 290415Z AUTO 27004KT 10SM SCT047 SCT060 OVC075 17/16 A2999 RMK AO2 T01740158

More Conditions Fewer Conditions

10-Day Weather Forecast

Almanac

Astronomia

Jul. 29, 2014 Alba Tramonto
Ora attuale 06:29 EDT 20:41 EDT
Crepuscolo civile 06:00 EDT 21:10 EDT
Crepuscolo nautico 05:24 EDT 21:46 EDT
Crepuscolo astronomico 04:44 EDT 22:26 EDT
Luna 09:01 EDT 21:57 EDT
Estensione della luce visibile 15h 10m
Lunghezza del giorno
14h 11m
Tomorrow will be 1m 46s shorter.
Luna crescente, 4% of the Moon is Illuminated
Oggi
Luna crescente
Ago 3
Primo quarto
Ago 10
Luna piena
Ago 17
Ultimo quarto
Ago 25
Nuovo

Minime e massime di ieri

State Highs State Lows

Community

WunderPhotos

Upload Photos

1,738,631 foto caricate!

Nearby

Profondità neve

Stazione Profondità Altitudine
Non sono state evidenziate nuove nevicate

Attività sismica

Città  Distanza Mag. Data & Ora
Non sono state riportate attività sismiche nelle vicinanze.
Minimo Magnitudo Mostrato è 2.5.

Temperature delle acque costiere

Località Temperatura
Nessun dato dalle stazioni

Stazioni meteo nelle vicinanze

Ubicazione della stazione Temp. Punto di rugiada Umidità Vento Precip. Alt. Aggiornato Tipo
Near Salt Rock Elementary School, Salt Rock, WV 60.8 °F 59 °F 95% SE  a  0.0 mph 0.00 in / hr 627 ft 12:33 AM EDT Normale
Trace Creek, Hamlin, WV 62.6 °F 62 °F 98% ESE  a  0.0 mph 0.00 in / hr 713 ft 12:34 AM EDT Sequenza Rapida
Hamlin, Hamlin, WV 63.9 °F 64 °F 99% SE  a  0.0 mph - / hr 666 ft 11:25 PM EDT Normale
Salt Rock, Salt Rock, WV 63.8 °F 63 °F 98% ESE  a  0.0 mph 0.00 in / hr 618 ft 12:19 AM EDT Normale

Show More Stations Show Fewer Stations